John H Macmillan Jr — WDB9907 — position and weather

sailwx.info

Track history (hours):
 
Tides and Currents Weather Stations Pressure Air Temp Water Temp Dewpoint Dewpoint Depression Visibility Wind Speed Wind Dir Waves Ship Positions

John H Macmillan Jr

Owner: American River Transportation Company, St Louis, MO. More information available from US FCC via Universal Licensing System and Coast Guard Vessel Documentation Center.

Last reported at 2017-Nov-07 12:50 UTC. Time now 2017-Nov-18 21:51 UTC.
Position N 32°40' W 091°06'.
Warning: this ship's position is 11 days out of date.

Length 55 m; draft 3.5 m.

Type: Ship (hazmat cat B). MMSI: 366984920.

Date/timePositionNaut miles runAvg speedWind from/ knotsBaromVisibWave heightAir tempDewpointWater temp
2017-Nov-07 12:50N 32°40' W 091°06'1 4.4
2017-Nov-07 12:31N 32°40' W 091°08'2 3.3
2017-Nov-07 12:01N 32°39' W 091°09'1 1.4
2017-Nov-07 11:31N 32°38' W 091°09'2 4.0
2017-Nov-07 11:01N 32°36' W 091°08'2 4.5
2017-Nov-07 10:31N 32°34' W 091°07'2 3.8
2017-Nov-07 10:01N 32°33' W 091°06'2 4.1
2017-Nov-07 09:31N 32°31' W 091°07'2 4.6
2017-Nov-07 09:01N 32°28' W 091°06'2 4.6
2017-Nov-07 08:31N 32°27' W 091°04'2 4.5
2017-Nov-07 08:01N 32°26' W 091°02'2 4.3
2017-Nov-07 07:31N 32°25' W 090°60'2 3.6
2017-Nov-07 07:01N 32°23' W 090°60'2 4.0
2017-Nov-07 06:31N 32°21' W 090°59'2 4.9
2017-Nov-07 06:01N 32°21' W 090°56'2 4.3
2017-Nov-07 05:31N 32°20' W 090°54'2 4.3
2017-Nov-07 05:01N 32°18' W 090°55'0 0.3
2017-Nov-07 04:31N 32°18' W 090°55'0 0.0
2017-Nov-07 04:01N 32°18' W 090°55'0 0.0
2017-Nov-07 03:31N 32°18' W 090°55'0 0.0
2017-Nov-07 03:01N 32°18' W 090°55'0 0.0
2017-Nov-07 02:31N 32°18' W 090°55'0 0.9
2017-Nov-07 02:01N 32°18' W 090°55'1 1.0
2017-Nov-07 01:31N 32°18' W 090°56'1 2.7
2017-Nov-07 01:01N 32°17' W 090°57'2 3.9
2017-Nov-07 00:30N 32°15' W 090°59'2 3.4
2017-Nov-07 00:01N 32°13' W 090°59'2 4.5
2017-Nov-06 23:30N 32°11' W 090°60'2 4.3
2017-Nov-06 23:01N 32°09' W 091°00'2 4.0
2017-Nov-06 22:31N 32°07' W 091°01'4 4.0
2017-Nov-06 21:30N 32°08' W 091°06'2 3.3
2017-Nov-06 21:01N 32°06' W 091°06'2 1.9
2017-Nov-06 20:05N 32°05' W 091°04'  
2017-Nov-02 07:12N 31°59' W 091°06'7 7.4
2017-Nov-02 06:16N 32°06' W 091°06'1 4.9
2017-Nov-02 06:00N 32°07' W 091°07'2 4.9
2017-Nov-02 05:30N 32°08' W 091°04'4 7.0
2017-Nov-02 04:59N 32°10' W 091°00'4 8.8
2017-Nov-02 04:30N 32°14' W 090°59'4 7.7
2017-Nov-02 04:01N 32°17' W 090°57'2 3.8
2017-Nov-02 03:31N 32°18' W 090°55'0 0.2
2017-Nov-02 03:00N 32°18' W 090°55'0 0.0
2017-Nov-02 02:30N 32°18' W 090°55'0 0.0
2017-Nov-02 02:00N 32°18' W 090°55'0 0.0
2017-Nov-02 01:30N 32°18' W 090°55'0 0.0
2017-Nov-02 01:01N 32°18' W 090°55'0 0.0
2017-Nov-02 00:31N 32°18' W 090°55'0 0.0
2017-Nov-02 00:00N 32°18' W 090°55'0 0.0
2017-Nov-01 23:31N 32°18' W 090°55'0 0.4
2017-Nov-01 23:00N 32°18' W 090°55'0 0.1
2017-Nov-01 22:31N 32°18' W 090°55'0 0.0
2017-Nov-01 22:00N 32°18' W 090°55'0 0.0
2017-Nov-01 21:30N 32°18' W 090°55'0 0.1
2017-Nov-01 21:00N 32°18' W 090°55'0 0.0
2017-Nov-01 20:30N 32°18' W 090°55'1 1.2
2017-Nov-01 20:00N 32°18' W 090°55'3 5.6
2017-Nov-01 19:30N 32°21' W 090°56'1 2.2
2017-Nov-01 19:00N 32°21' W 090°57'3 5.2
2017-Nov-01 18:31N 32°22' W 091°00'  
Track history (hours):
 
Tides and Currents Weather Stations Pressure Air Temp Water Temp Dewpoint Dewpoint Depression Visibility Wind Speed Wind Dir Waves Ship Positions

John H Macmillan Jr

Owner: American River Transportation Company, St Louis, MO. More information available from US FCC via Universal Licensing System and Coast Guard Vessel Documentation Center.

Last reported at 2017-Nov-07 12:50 UTC. Time now 2017-Nov-18 21:51 UTC.
Position N 32°40' W 091°06'.
Warning: this ship's position is 11 days out of date.

Length 55 m; draft 3.5 m.

Type: Ship (hazmat cat B). MMSI: 366984920.

Date/timePositionNaut miles runAvg speedWind from/ knotsBaromVisibWave heightAir tempDewpointWater temp
2017-Nov-07 12:50N 32°40' W 091°06'1 4.4
2017-Nov-07 12:31N 32°40' W 091°08'2 3.3
2017-Nov-07 12:01N 32°39' W 091°09'1 1.4
2017-Nov-07 11:31N 32°38' W 091°09'2 4.0
2017-Nov-07 11:01N 32°36' W 091°08'2 4.5
2017-Nov-07 10:31N 32°34' W 091°07'2 3.8
2017-Nov-07 10:01N 32°33' W 091°06'2 4.1
2017-Nov-07 09:31N 32°31' W 091°07'2 4.6
2017-Nov-07 09:01N 32°28' W 091°06'2 4.6
2017-Nov-07 08:31N 32°27' W 091°04'2 4.5
2017-Nov-07 08:01N 32°26' W 091°02'2 4.3
2017-Nov-07 07:31N 32°25' W 090°60'2 3.6
2017-Nov-07 07:01N 32°23' W 090°60'2 4.0
2017-Nov-07 06:31N 32°21' W 090°59'2 4.9
2017-Nov-07 06:01N 32°21' W 090°56'2 4.3
2017-Nov-07 05:31N 32°20' W 090°54'2 4.3
2017-Nov-07 05:01N 32°18' W 090°55'0 0.3
2017-Nov-07 04:31N 32°18' W 090°55'0 0.0
2017-Nov-07 04:01N 32°18' W 090°55'0 0.0
2017-Nov-07 03:31N 32°18' W 090°55'0 0.0
2017-Nov-07 03:01N 32°18' W 090°55'0 0.0
2017-Nov-07 02:31N 32°18' W 090°55'0 0.9
2017-Nov-07 02:01N 32°18' W 090°55'1 1.0
2017-Nov-07 01:31N 32°18' W 090°56'1 2.7
2017-Nov-07 01:01N 32°17' W 090°57'2 3.9
2017-Nov-07 00:30N 32°15' W 090°59'2 3.4
2017-Nov-07 00:01N 32°13' W 090°59'2 4.5
2017-Nov-06 23:30N 32°11' W 090°60'2 4.3
2017-Nov-06 23:01N 32°09' W 091°00'2 4.0
2017-Nov-06 22:31N 32°07' W 091°01'4 4.0
2017-Nov-06 21:30N 32°08' W 091°06'2 3.3
2017-Nov-06 21:01N 32°06' W 091°06'2 1.9
2017-Nov-06 20:05N 32°05' W 091°04'  
2017-Nov-02 07:12N 31°59' W 091°06'7 7.4
2017-Nov-02 06:16N 32°06' W 091°06'1 4.9
2017-Nov-02 06:00N 32°07' W 091°07'2 4.9
2017-Nov-02 05:30N 32°08' W 091°04'4 7.0
2017-Nov-02 04:59N 32°10' W 091°00'4 8.8
2017-Nov-02 04:30N 32°14' W 090°59'4 7.7
2017-Nov-02 04:01N 32°17' W 090°57'2 3.8
2017-Nov-02 03:31N 32°18' W 090°55'0 0.2
2017-Nov-02 03:00N 32°18' W 090°55'0 0.0
2017-Nov-02 02:30N 32°18' W 090°55'0 0.0
2017-Nov-02 02:00N 32°18' W 090°55'0 0.0
2017-Nov-02 01:30N 32°18' W 090°55'0 0.0
2017-Nov-02 01:01N 32°18' W 090°55'0 0.0
2017-Nov-02 00:31N 32°18' W 090°55'0 0.0
2017-Nov-02 00:00N 32°18' W 090°55'0 0.0
2017-Nov-01 23:31N 32°18' W 090°55'0 0.4
2017-Nov-01 23:00N 32°18' W 090°55'0 0.1
2017-Nov-01 22:31N 32°18' W 090°55'0 0.0
2017-Nov-01 22:00N 32°18' W 090°55'0 0.0
2017-Nov-01 21:30N 32°18' W 090°55'0 0.1
2017-Nov-01 21:00N 32°18' W 090°55'0 0.0
2017-Nov-01 20:30N 32°18' W 090°55'1 1.2
2017-Nov-01 20:00N 32°18' W 090°55'3 5.6
2017-Nov-01 19:30N 32°21' W 090°56'1 2.2
2017-Nov-01 19:00N 32°21' W 090°57'3 5.2
2017-Nov-01 18:31N 32°22' W 091°00'  

Dump ship's entire track history